createdAt,value
2023-02-23T00:00:21.025Z,22.25
2023-02-23T00:03:33.753Z,21.30
2023-02-23T00:06:46.187Z,20.15
2023-02-23T00:09:58.924Z,22.83
2023-02-23T00:13:11.221Z,22.00
2023-02-23T00:16:24.906Z,23.50
2023-02-23T00:19:37.860Z,27.52
2023-02-23T00:22:51.455Z,24.10
2023-02-23T00:26:04.474Z,25.60
2023-02-23T00:29:22.066Z,22.62
2023-02-23T00:35:47.817Z,22.80
2023-02-23T00:39:02.022Z,22.85
2023-02-23T00:42:15.533Z,23.98
2023-02-23T00:45:27.848Z,22.62
2023-02-23T00:48:40.449Z,22.50
2023-02-23T00:51:53.083Z,25.80
2023-02-23T00:55:13.322Z,25.02
2023-02-23T00:58:26.146Z,21.98
2023-02-23T01:01:39.118Z,23.05
2023-02-23T01:04:52.813Z,22.90
2023-02-23T01:08:09.404Z,20.20
2023-02-23T01:11:22.967Z,17.92
2023-02-23T01:14:35.818Z,19.90
2023-02-23T01:17:49.776Z,24.08
2023-02-23T01:21:03.091Z,21.60
2023-02-23T01:24:15.412Z,27.35
2023-02-23T01:27:29.293Z,20.50
2023-02-23T01:30:41.793Z,19.77
2023-02-23T01:33:58.430Z,23.98
2023-02-23T01:37:10.759Z,18.35
2023-02-23T01:40:29.866Z,19.75
2023-02-23T01:44:14.319Z,26.17
2023-02-23T01:47:27.334Z,18.35
2023-02-23T01:50:57.065Z,23.92
2023-02-23T01:54:14.512Z,19.30
2023-02-23T01:57:27.388Z,22.50
2023-02-23T02:00:40.242Z,24.83
2023-02-23T02:03:57.908Z,20.80
2023-02-23T02:10:39.569Z,25.80
2023-02-23T02:14:13.933Z,25.25
2023-02-23T02:17:41.717Z,22.65
2023-02-23T02:21:06.061Z,28.17
2023-02-23T02:24:40.407Z,19.83
2023-02-23T02:28:30.235Z,20.85
2023-02-23T02:32:02.682Z,17.10
2023-02-23T02:35:46.988Z,27.60
2023-02-23T02:39:10.553Z,26.48
2023-02-23T02:42:30.153Z,25.05
2023-02-23T02:45:45.751Z,20.60
2023-02-23T02:49:02.662Z,22.73
2023-02-23T02:52:17.785Z,23.40
2023-02-23T02:55:34.444Z,21.52
2023-02-23T02:58:47.344Z,18.92
2023-02-23T03:02:18.570Z,24.08
2023-02-23T03:06:00.294Z,22.85
2023-02-23T03:09:39.391Z,21.30
2023-02-23T03:13:13.765Z,19.77
2023-02-23T03:17:13.288Z,20.58
2023-02-23T03:20:53.648Z,24.35
2023-02-23T03:24:30.520Z,23.92
2023-02-23T03:28:13.716Z,30.83
2023-02-23T03:31:59.605Z,20.02
2023-02-23T03:35:37.160Z,23.65
2023-02-23T03:39:15.204Z,26.52
2023-02-23T03:42:49.021Z,22.95
2023-02-23T03:46:19.972Z,24.27
2023-02-23T03:49:56.553Z,23.27
2023-02-23T03:53:27.516Z,25.17
2023-02-23T03:57:00.164Z,18.87
2023-02-23T04:00:34.336Z,30.58
2023-02-23T04:04:05.460Z,22.00
2023-02-23T04:07:37.791Z,24.85
2023-02-23T04:11:10.490Z,24.33
2023-02-23T04:14:44.821Z,26.60
2023-02-23T04:17:57.458Z,25.67
2023-02-23T04:21:09.847Z,25.10
2023-02-23T04:24:22.522Z,22.67
2023-02-23T04:27:36.123Z,19.75
2023-02-23T04:30:48.790Z,23.20
2023-02-23T04:34:01.196Z,21.65
2023-02-23T04:37:13.844Z,25.98
2023-02-23T04:40:26.545Z,22.67
2023-02-23T04:43:39.211Z,22.62
2023-02-23T04:46:51.565Z,25.77
2023-02-23T04:50:04.548Z,22.62
2023-02-23T04:53:16.869Z,27.23
2023-02-23T04:56:29.747Z,20.10
2023-02-23T04:59:42.528Z,22.33
2023-02-23T05:02:56.045Z,29.80
2023-02-23T05:06:08.357Z,21.50
2023-02-23T05:09:20.971Z,26.92
2023-02-23T05:12:33.357Z,20.12
2023-02-23T05:15:46.136Z,23.77
2023-02-23T05:18:58.515Z,24.17
2023-02-23T05:22:12.674Z,25.33
2023-02-23T05:25:25.490Z,27.25
2023-02-23T05:28:38.728Z,28.70
2023-02-23T05:31:51.205Z,23.67
2023-02-23T05:35:03.984Z,29.92
2023-02-23T05:38:16.380Z,25.27
2023-02-23T05:41:29.016Z,29.23
2023-02-23T05:44:41.377Z,27.87
2023-02-23T05:47:54.013Z,25.10
2023-02-23T05:51:11.644Z,24.98
2023-02-23T05:54:24.300Z,24.25
2023-02-23T05:57:36.673Z,26.40
2023-02-23T06:00:49.288Z,20.90
2023-02-23T06:04:02.424Z,24.40
2023-02-23T06:07:15.970Z,27.77
2023-02-23T06:10:28.610Z,27.37
2023-02-23T06:13:41.296Z,24.95
2023-02-23T06:16:53.910Z,24.42
2023-02-23T06:20:07.322Z,30.05
2023-02-23T06:23:20.062Z,27.37
2023-02-23T06:26:33.334Z,22.08
2023-02-23T06:29:45.928Z,21.95
2023-02-23T06:32:58.265Z,28.02
2023-02-23T06:36:11.001Z,26.83
2023-02-23T06:39:23.352Z,27.50
2023-02-23T06:42:36.760Z,41.55
2023-02-23T06:45:49.145Z,27.95
2023-02-23T06:49:01.945Z,24.02
2023-02-23T06:52:14.570Z,26.70
2023-02-23T06:55:27.304Z,26.15
2023-02-23T06:58:40.606Z,23.42
2023-02-23T07:01:53.290Z,27.05
2023-02-23T07:05:05.803Z,25.50
2023-02-23T07:08:18.523Z,24.27
2023-02-23T07:11:30.850Z,23.00
2023-02-23T07:14:43.500Z,22.23
2023-02-23T07:17:56.867Z,23.42
2023-02-23T07:21:09.464Z,26.02
2023-02-23T07:24:21.989Z,25.75
2023-02-23T07:27:34.975Z,26.65
2023-02-23T07:30:47.722Z,22.60
2023-02-23T07:34:00.337Z,24.45
2023-02-23T07:37:12.718Z,22.70
2023-02-23T07:40:26.233Z,23.70
2023-02-23T07:43:38.835Z,24.98
2023-02-23T07:46:53.130Z,26.55
2023-02-23T07:50:09.836Z,20.35
2023-02-23T07:53:22.434Z,21.45
2023-02-23T07:56:35.421Z,18.85
2023-02-23T07:59:48.589Z,24.95
2023-02-23T08:03:01.456Z,23.27
2023-02-23T08:06:14.101Z,24.52
2023-02-23T08:09:26.429Z,25.40
2023-02-23T08:12:39.199Z,20.75
2023-02-23T08:15:51.548Z,23.90
2023-02-23T08:19:04.264Z,21.58
2023-02-23T08:22:16.568Z,21.75
2023-02-23T08:25:31.841Z,17.52
2023-02-23T08:28:45.887Z,23.87
2023-02-23T08:31:58.699Z,18.85
2023-02-23T08:35:11.181Z,24.12
2023-02-23T08:38:23.776Z,19.73
2023-02-23T08:41:36.153Z,19.58
2023-02-23T08:44:51.573Z,18.50
2023-02-23T08:48:04.048Z,19.77
2023-02-23T08:51:16.900Z,20.45
2023-02-23T08:54:29.381Z,18.77
2023-02-23T08:57:42.020Z,16.42
2023-02-23T09:00:54.383Z,22.20
2023-02-23T09:04:06.997Z,17.12
2023-02-23T09:07:22.657Z,20.45
2023-02-23T09:10:35.791Z,17.90
2023-02-23T09:13:48.148Z,22.98
2023-02-23T09:17:00.781Z,18.23
2023-02-23T09:20:15.764Z,21.52
2023-02-23T09:23:29.500Z,21.60
2023-02-23T09:26:43.529Z,20.73
2023-02-23T09:29:57.584Z,23.02
2023-02-23T09:33:10.030Z,20.95
2023-02-23T09:36:24.225Z,20.95
2023-02-23T09:39:38.947Z,26.33
2023-02-23T09:43:02.550Z,24.12
2023-02-23T09:47:04.663Z,19.58
2023-02-23T09:50:22.670Z,25.77
2023-02-23T09:53:41.595Z,22.25
2023-02-23T09:56:56.393Z,19.40
2023-02-23T10:00:27.460Z,19.75
2023-02-23T10:03:46.771Z,21.35
2023-02-23T10:07:06.630Z,21.58
2023-02-23T10:10:38.171Z,20.75
2023-02-23T10:14:18.839Z,27.67
2023-02-23T10:18:15.998Z,20.27
2023-02-23T10:21:36.178Z,19.27
2023-02-23T10:25:01.707Z,19.55
2023-02-23T10:28:20.235Z,19.92
2023-02-23T10:31:43.829Z,17.95
2023-02-23T10:34:56.808Z,19.90
2023-02-23T10:38:16.348Z,18.73
2023-02-23T10:41:29.470Z,22.58
2023-02-23T10:44:43.551Z,23.80
2023-02-23T10:47:55.780Z,23.67
2023-02-23T10:51:19.125Z,18.77
2023-02-23T10:54:39.568Z,23.60
2023-02-23T10:58:01.827Z,19.98
2023-02-23T11:01:15.929Z,14.70
2023-02-23T11:04:33.258Z,18.92
2023-02-23T11:07:45.586Z,20.58
2023-02-23T11:11:14.650Z,33.88
2023-02-23T11:14:30.518Z,19.67
2023-02-23T11:17:43.129Z,18.35
2023-02-23T11:20:55.564Z,21.40
2023-02-23T11:24:15.481Z,19.98
2023-02-23T11:27:27.854Z,17.83
2023-02-23T11:30:42.951Z,16.45
2023-02-23T11:33:55.580Z,17.10
2023-02-23T11:37:23.134Z,15.55
2023-02-23T11:40:35.508Z,16.85
2023-02-23T11:43:52.039Z,20.70
2023-02-23T11:47:04.437Z,18.80
2023-02-23T11:50:30.335Z,21.70
2023-02-23T11:53:45.324Z,19.12
2023-02-23T11:56:58.650Z,17.42
2023-02-23T12:00:22.752Z,22.45
2023-02-23T12:03:35.399Z,24.08
2023-02-23T12:06:47.750Z,19.23
2023-02-23T12:10:26.876Z,17.92
2023-02-23T12:13:46.127Z,18.70
2023-02-23T12:17:05.331Z,21.05
2023-02-23T12:20:26.978Z,22.00
2023-02-23T12:23:39.991Z,17.83
2023-02-23T12:26:59.141Z,18.42
2023-02-23T12:30:35.748Z,17.15
2023-02-23T12:33:50.631Z,16.90
2023-02-23T12:37:18.636Z,26.08
2023-02-23T12:43:51.628Z,24.70
2023-02-23T12:47:41.218Z,21.40
2023-02-23T12:50:55.792Z,18.48
2023-02-23T12:54:09.724Z,19.90
2023-02-23T12:57:52.265Z,17.37
2023-02-23T13:01:22.064Z,18.00
2023-02-23T13:04:47.356Z,18.75
2023-02-23T13:08:13.263Z,16.20
2023-02-23T13:11:41.557Z,19.80
2023-02-23T13:18:45.152Z,21.75
2023-02-23T13:22:32.289Z,20.03
2023-02-23T13:25:55.621Z,15.50
2023-02-23T13:29:45.790Z,13.48
2023-02-23T13:33:02.394Z,22.33
2023-02-23T13:36:14.729Z,13.77
2023-02-23T13:39:52.907Z,18.98
2023-02-23T13:43:30.220Z,14.80
2023-02-23T13:46:59.616Z,18.73
2023-02-23T13:50:22.582Z,20.45
2023-02-23T13:53:47.095Z,19.30
2023-02-23T13:57:01.396Z,16.40
2023-02-23T14:00:20.513Z,23.85
2023-02-23T14:03:35.544Z,16.45
2023-02-23T14:07:15.280Z,16.33
2023-02-23T14:10:41.406Z,17.00
2023-02-23T14:14:01.840Z,21.17
2023-02-23T14:17:14.374Z,15.00
2023-02-23T14:20:42.999Z,16.00
2023-02-23T14:24:21.252Z,20.48
2023-02-23T14:27:41.461Z,15.35
2023-02-23T14:31:13.014Z,20.23
2023-02-23T14:34:49.545Z,16.60
2023-02-23T14:38:10.984Z,23.70
2023-02-23T14:41:24.571Z,20.40
2023-02-23T14:44:41.326Z,19.52
2023-02-23T14:47:55.872Z,18.15
2023-02-23T14:51:20.607Z,19.37
2023-02-23T14:54:37.010Z,16.77
2023-02-23T14:57:49.984Z,18.65
2023-02-23T15:01:02.356Z,18.90
2023-02-23T15:04:18.034Z,19.45
2023-02-23T15:07:39.543Z,23.15
2023-02-23T15:11:12.111Z,23.12
2023-02-23T15:14:28.586Z,17.95
2023-02-23T15:17:42.535Z,17.75
2023-02-23T15:20:54.989Z,16.30
2023-02-23T15:24:13.392Z,18.30
2023-02-23T15:27:30.150Z,19.75
2023-02-23T15:30:47.330Z,23.17
2023-02-23T15:33:59.649Z,39.45
2023-02-23T15:37:20.064Z,42.33
2023-02-23T15:40:33.815Z,40.88
2023-02-23T15:43:46.455Z,30.83
2023-02-23T15:47:00.442Z,29.80
2023-02-23T15:50:35.990Z,27.52
2023-02-23T15:53:48.736Z,26.27
2023-02-23T15:57:14.067Z,28.30
2023-02-23T16:00:40.228Z,29.02
2023-02-23T16:04:09.378Z,25.52
2023-02-23T16:07:23.597Z,31.70
2023-02-23T16:10:41.795Z,29.12
2023-02-23T16:13:54.185Z,30.30
2023-02-23T16:17:11.538Z,30.75
2023-02-23T16:20:35.101Z,31.90
2023-02-23T16:23:49.273Z,28.77
2023-02-23T16:27:02.129Z,27.65
2023-02-23T16:30:23.515Z,28.45
2023-02-23T16:33:48.568Z,28.95
2023-02-23T16:37:15.777Z,26.87
2023-02-23T16:40:28.201Z,33.28
2023-02-23T16:43:40.766Z,29.67
2023-02-23T16:47:03.565Z,30.75
2023-02-23T16:50:20.345Z,38.90
2023-02-23T16:53:33.019Z,67.53
2023-02-23T16:56:46.441Z,62.28
2023-02-23T16:59:58.908Z,55.20
2023-02-23T17:03:25.511Z,62.72
2023-02-23T17:06:38.347Z,62.08
2023-02-23T17:09:50.985Z,54.33
2023-02-23T17:13:08.251Z,45.65
2023-02-23T17:16:21.200Z,55.70
2023-02-23T17:19:33.797Z,51.50
2023-02-23T17:22:46.400Z,49.03
2023-02-23T17:25:58.969Z,54.50
2023-02-23T17:29:11.671Z,50.03
2023-02-23T17:32:24.373Z,50.53
2023-02-23T17:35:37.593Z,60.00
2023-02-23T17:38:49.933Z,61.08
2023-02-23T17:42:02.531Z,63.28
2023-02-23T17:45:14.862Z,67.78
2023-02-23T17:48:27.880Z,69.85
2023-02-23T17:51:40.520Z,65.07
2023-02-23T17:54:54.503Z,63.87
2023-02-23T17:58:06.824Z,61.45
2023-02-23T18:01:19.998Z,49.92
2023-02-23T18:04:32.858Z,47.60
2023-02-23T18:07:48.289Z,47.62
2023-02-23T18:11:01.309Z,43.53
2023-02-23T18:14:14.455Z,41.10
2023-02-23T18:17:27.144Z,44.55
2023-02-23T18:20:39.478Z,44.35
2023-02-23T18:23:52.144Z,44.35
2023-02-23T18:27:04.594Z,42.85
2023-02-23T18:30:17.295Z,42.13
2023-02-23T18:33:31.506Z,50.45
2023-02-23T18:36:44.167Z,51.97
2023-02-23T18:39:57.867Z,53.05
2023-02-23T18:43:11.119Z,57.58
2023-02-23T18:46:23.498Z,56.42
2023-02-23T18:49:37.002Z,54.92
2023-02-23T18:52:50.917Z,53.25
2023-02-23T18:56:05.716Z,51.80
2023-02-23T18:59:18.105Z,43.72
2023-02-23T19:02:30.718Z,51.45
2023-02-23T19:05:52.870Z,49.38
2023-02-23T19:09:09.760Z,40.65
2023-02-23T19:12:22.164Z,35.80
2023-02-23T19:15:35.448Z,32.78
2023-02-23T19:18:47.978Z,34.55
2023-02-23T19:22:00.580Z,35.03
2023-02-23T19:25:14.507Z,31.65
2023-02-23T19:28:27.366Z,28.10
2023-02-23T19:31:39.837Z,27.75
2023-02-23T19:34:52.580Z,27.20
2023-02-23T19:38:04.895Z,29.85
2023-02-23T19:41:20.843Z,31.70
2023-02-23T19:44:34.026Z,28.00
2023-02-23T19:47:46.805Z,29.08
2023-02-23T19:50:59.165Z,30.92
2023-02-23T19:54:11.796Z,28.25
2023-02-23T19:57:24.172Z,25.08
2023-02-23T20:00:36.796Z,26.95
2023-02-23T20:03:55.344Z,24.00
2023-02-23T20:07:09.924Z,27.23
2023-02-23T20:10:25.842Z,29.02
2023-02-23T20:13:39.139Z,30.10
2023-02-23T20:16:51.900Z,30.83
2023-02-23T20:20:06.298Z,29.12
2023-02-23T20:23:18.951Z,26.73
2023-02-23T20:26:34.269Z,27.60
2023-02-23T20:29:48.102Z,26.25
2023-02-23T20:33:02.465Z,31.42
2023-02-23T20:36:15.109Z,29.37
2023-02-23T20:39:27.515Z,29.73
2023-02-23T20:42:41.676Z,32.90
2023-02-23T20:45:54.849Z,30.25
2023-02-23T20:49:11.242Z,36.53
2023-02-23T20:52:23.658Z,37.42
2023-02-23T20:55:36.328Z,35.15
2023-02-23T20:58:48.681Z,29.55
2023-02-23T21:02:01.744Z,30.23
2023-02-23T21:05:14.566Z,31.52
2023-02-23T21:08:28.785Z,25.95
2023-02-23T21:11:41.291Z,29.92
2023-02-23T21:14:53.959Z,33.42
2023-02-23T21:18:06.561Z,27.55
2023-02-23T21:21:19.474Z,28.10
2023-02-23T21:24:34.763Z,26.12
2023-02-23T21:27:48.176Z,33.80
2023-02-23T21:31:00.543Z,34.90
2023-02-23T21:34:15.403Z,34.33
2023-02-23T21:37:27.911Z,29.30
2023-02-23T21:40:42.401Z,30.45
2023-02-23T21:43:54.772Z,34.38
2023-02-23T21:47:07.523Z,34.38
2023-02-23T21:50:20.163Z,37.45
2023-02-23T21:53:33.097Z,31.85
2023-02-23T21:56:45.378Z,30.95
2023-02-23T21:59:58.193Z,34.28
2023-02-23T22:03:10.628Z,36.45
2023-02-23T22:06:28.319Z,28.98
2023-02-23T22:09:40.715Z,30.88
2023-02-23T22:12:57.005Z,29.15
2023-02-23T22:16:09.559Z,31.48
2023-02-23T22:19:22.229Z,28.87
2023-02-23T22:22:36.270Z,31.52
2023-02-23T22:25:48.988Z,30.55
2023-02-23T22:29:01.439Z,31.02
2023-02-23T22:32:14.319Z,33.17
2023-02-23T22:35:26.752Z,31.83
2023-02-23T22:38:40.516Z,31.23
2023-02-23T22:41:52.904Z,28.77
2023-02-23T22:45:06.227Z,29.65
2023-02-23T22:48:18.520Z,29.27
2023-02-23T22:51:31.160Z,34.42
2023-02-23T22:54:45.635Z,30.10
2023-02-23T22:57:59.912Z,31.00
2023-02-23T23:01:12.391Z,30.73
2023-02-23T23:04:25.901Z,28.55
2023-02-23T23:07:38.273Z,29.60
2023-02-23T23:10:51.033Z,27.35
2023-02-23T23:14:06.953Z,34.58
2023-02-23T23:17:20.392Z,26.30
2023-02-23T23:20:32.748Z,29.20
2023-02-23T23:23:45.440Z,31.33
2023-02-23T23:27:00.275Z,32.75
2023-02-23T23:30:13.367Z,27.60
2023-02-23T23:33:26.982Z,31.98
2023-02-23T23:36:43.073Z,27.55
2023-02-23T23:39:59.317Z,30.35
2023-02-23T23:43:12.272Z,32.23
2023-02-23T23:46:26.271Z,31.00
2023-02-23T23:49:39.188Z,27.73
2023-02-23T23:52:51.811Z,33.20
2023-02-23T23:56:06.409Z,27.37
2023-02-23T23:59:21.395Z,25.50
